sensor_id;sensor_type;location;lat;lon;timestamp;pressure;altitude;pressure_sealevel;temperature;humidity
80242;BME280;69556;45.004;7.532;2023-04-24T00:00:03;97659.66;;;11.46;84.92
80242;BME280;69556;45.004;7.532;2023-04-24T00:02:34;97666.97;;;11.41;85.29
80242;BME280;69556;45.004;7.532;2023-04-24T00:05:03;97655.97;;;11.33;85.38
80242;BME280;69556;45.004;7.532;2023-04-24T00:07:29;97657.88;;;11.29;85.73
80242;BME280;69556;45.004;7.532;2023-04-24T00:09:55;97656.19;;;11.28;85.90
80242;BME280;69556;45.004;7.532;2023-04-24T00:12:20;97652.06;;;11.23;86.04
80242;BME280;69556;45.004;7.532;2023-04-24T00:14:46;97654.41;;;11.12;86.43
80242;BME280;69556;45.004;7.532;2023-04-24T00:17:11;97668.69;;;11.08;86.42
80242;BME280;69556;45.004;7.532;2023-04-24T00:19:37;97661.78;;;11.05;86.66
80242;BME280;69556;45.004;7.532;2023-04-24T00:22:02;97662.88;;;11.01;86.75
80242;BME280;69556;45.004;7.532;2023-04-24T00:24:28;97660.25;;;11.01;86.60
80242;BME280;69556;45.004;7.532;2023-04-24T00:26:53;97658.53;;;11.00;86.68
80242;BME280;69556;45.004;7.532;2023-04-24T00:29:19;97657.59;;;11.01;86.29
80242;BME280;69556;45.004;7.532;2023-04-24T00:31:44;97658.44;;;11.01;86.23
80242;BME280;69556;45.004;7.532;2023-04-24T00:34:10;97657.75;;;10.98;86.56
80242;BME280;69556;45.004;7.532;2023-04-24T00:36:36;97646.66;;;10.91;86.75
80242;BME280;69556;45.004;7.532;2023-04-24T00:39:02;97643.16;;;10.91;86.49
80242;BME280;69556;45.004;7.532;2023-04-24T00:41:27;97640.50;;;10.91;86.51
80242;BME280;69556;45.004;7.532;2023-04-24T00:43:53;97634.50;;;10.87;87.04
80242;BME280;69556;45.004;7.532;2023-04-24T00:46:18;97640.88;;;10.83;87.02
80242;BME280;69556;45.004;7.532;2023-04-24T00:48:44;97638.63;;;10.76;86.87
80242;BME280;69556;45.004;7.532;2023-04-24T00:51:10;97641.19;;;10.77;86.65
80242;BME280;69556;45.004;7.532;2023-04-24T00:53:35;97629.44;;;10.66;86.62
80242;BME280;69556;45.004;7.532;2023-04-24T00:56:01;97640.69;;;10.69;86.22
80242;BME280;69556;45.004;7.532;2023-04-24T00:58:27;97632.09;;;10.66;86.70
80242;BME280;69556;45.004;7.532;2023-04-24T01:00:53;97637.22;;;10.69;86.27
80242;BME280;69556;45.004;7.532;2023-04-24T01:03:21;97629.22;;;10.70;86.30
80242;BME280;69556;45.004;7.532;2023-04-24T01:05:49;97625.88;;;10.67;86.17
80242;BME280;69556;45.004;7.532;2023-04-24T01:08:14;97614.31;;;10.69;86.21
80242;BME280;69556;45.004;7.532;2023-04-24T01:10:40;97608.97;;;10.71;86.17
80242;BME280;69556;45.004;7.532;2023-04-24T01:13:08;97608.13;;;10.70;86.50
80242;BME280;69556;45.004;7.532;2023-04-24T01:15:34;97599.28;;;10.71;86.38
80242;BME280;69556;45.004;7.532;2023-04-24T01:17:59;97602.91;;;10.69;86.84
80242;BME280;69556;45.004;7.532;2023-04-24T01:20:25;97618.84;;;10.67;86.84
80242;BME280;69556;45.004;7.532;2023-04-24T01:22:51;97626.66;;;10.69;86.66
80242;BME280;69556;45.004;7.532;2023-04-24T01:25:17;97624.75;;;10.72;86.94
80242;BME280;69556;45.004;7.532;2023-04-24T01:27:43;97610.53;;;10.75;86.60
80242;BME280;69556;45.004;7.532;2023-04-24T01:30:09;97599.19;;;10.73;86.72
80242;BME280;69556;45.004;7.532;2023-04-24T01:32:35;97600.19;;;10.70;86.76
80242;BME280;69556;45.004;7.532;2023-04-24T01:35:01;97607.25;;;10.70;86.55
80242;BME280;69556;45.004;7.532;2023-04-24T01:37:27;97598.88;;;10.62;86.21
80242;BME280;69556;45.004;7.532;2023-04-24T01:39:52;97607.41;;;10.67;86.14
80242;BME280;69556;45.004;7.532;2023-04-24T01:42:18;97606.50;;;10.68;86.34
80242;BME280;69556;45.004;7.532;2023-04-24T01:44:43;97609.13;;;10.68;86.78
80242;BME280;69556;45.004;7.532;2023-04-24T01:47:09;97612.75;;;10.65;86.89
80242;BME280;69556;45.004;7.532;2023-04-24T01:49:36;97622.63;;;10.62;86.74
80242;BME280;69556;45.004;7.532;2023-04-24T01:52:02;97622.78;;;10.58;86.46
80242;BME280;69556;45.004;7.532;2023-04-24T01:54:28;97606.16;;;10.56;86.67
80242;BME280;69556;45.004;7.532;2023-04-24T01:56:53;97598.47;;;10.52;86.95
80242;BME280;69556;45.004;7.532;2023-04-24T01:59:20;97601.97;;;10.52;86.91
80242;BME280;69556;45.004;7.532;2023-04-24T02:01:46;97603.81;;;10.50;87.00
80242;BME280;69556;45.004;7.532;2023-04-24T02:04:12;97605.59;;;10.50;86.45
80242;BME280;69556;45.004;7.532;2023-04-24T02:06:37;97622.28;;;10.50;86.74
80242;BME280;69556;45.004;7.532;2023-04-24T02:09:02;97626.88;;;10.47;86.50
80242;BME280;69556;45.004;7.532;2023-04-24T02:11:28;97624.16;;;10.48;86.30
80242;BME280;69556;45.004;7.532;2023-04-24T02:13:54;97620.72;;;10.46;86.54
80242;BME280;69556;45.004;7.532;2023-04-24T02:16:19;97618.09;;;10.46;86.49
80242;BME280;69556;45.004;7.532;2023-04-24T02:18:44;97604.13;;;10.44;86.32
80242;BME280;69556;45.004;7.532;2023-04-24T02:21:10;97611.09;;;10.45;86.52
80242;BME280;69556;45.004;7.532;2023-04-24T02:23:36;97612.06;;;10.44;86.93
80242;BME280;69556;45.004;7.532;2023-04-24T02:26:01;97608.78;;;10.39;86.80
80242;BME280;69556;45.004;7.532;2023-04-24T02:28:27;97614.34;;;10.33;87.53
80242;BME280;69556;45.004;7.532;2023-04-24T02:30:52;97615.25;;;10.32;86.89
80242;BME280;69556;45.004;7.532;2023-04-24T02:33:18;97624.25;;;10.28;87.08
80242;BME280;69556;45.004;7.532;2023-04-24T02:35:43;97630.47;;;10.27;87.10
80242;BME280;69556;45.004;7.532;2023-04-24T02:38:08;97635.66;;;10.29;87.44
80242;BME280;69556;45.004;7.532;2023-04-24T02:40:34;97620.69;;;10.29;87.20
80242;BME280;69556;45.004;7.532;2023-04-24T02:42:59;97617.28;;;10.27;87.18
80242;BME280;69556;45.004;7.532;2023-04-24T02:45:25;97618.28;;;10.25;87.21
80242;BME280;69556;45.004;7.532;2023-04-24T02:47:50;97612.31;;;10.21;86.92
80242;BME280;69556;45.004;7.532;2023-04-24T02:50:15;97617.72;;;10.18;86.82
80242;BME280;69556;45.004;7.532;2023-04-24T02:52:41;97616.56;;;10.24;87.00
80242;BME280;69556;45.004;7.532;2023-04-24T02:55:06;97607.72;;;10.25;86.73
80242;BME280;69556;45.004;7.532;2023-04-24T02:57:33;97607.91;;;10.22;86.93
80242;BME280;69556;45.004;7.532;2023-04-24T02:59:58;97603.44;;;10.22;86.74
80242;BME280;69556;45.004;7.532;2023-04-24T03:02:23;97592.19;;;10.19;87.22
80242;BME280;69556;45.004;7.532;2023-04-24T03:04:49;97598.31;;;10.19;87.21
80242;BME280;69556;45.004;7.532;2023-04-24T03:07:14;97593.31;;;10.13;87.12
80242;BME280;69556;45.004;7.532;2023-04-24T03:09:40;97595.88;;;10.14;87.33
80242;BME280;69556;45.004;7.532;2023-04-24T03:12:06;97576.53;;;10.15;87.13
80242;BME280;69556;45.004;7.532;2023-04-24T03:14:31;97587.94;;;10.16;87.19
80242;BME280;69556;45.004;7.532;2023-04-24T03:16:57;97583.56;;;10.15;87.51
80242;BME280;69556;45.004;7.532;2023-04-24T03:19:22;97578.50;;;10.10;87.24
80242;BME280;69556;45.004;7.532;2023-04-24T03:21:48;97587.56;;;10.05;87.01
80242;BME280;69556;45.004;7.532;2023-04-24T03:24:13;97571.31;;;9.95;86.87
80242;BME280;69556;45.004;7.532;2023-04-24T03:26:38;97573.09;;;9.95;87.37
80242;BME280;69556;45.004;7.532;2023-04-24T03:29:04;97576.53;;;9.97;87.55
80242;BME280;69556;45.004;7.532;2023-04-24T03:31:29;97578.25;;;9.98;87.50
80242;BME280;69556;45.004;7.532;2023-04-24T03:33:54;97570.56;;;9.93;87.25
80242;BME280;69556;45.004;7.532;2023-04-24T03:36:20;97577.38;;;9.97;87.52
80242;BME280;69556;45.004;7.532;2023-04-24T03:38:45;97584.38;;;9.98;87.74
80242;BME280;69556;45.004;7.532;2023-04-24T03:41:11;97590.47;;;9.99;87.53
80242;BME280;69556;45.004;7.532;2023-04-24T03:43:37;97582.72;;;9.96;87.28
80242;BME280;69556;45.004;7.532;2023-04-24T03:46:02;97585.41;;;9.94;87.19
80242;BME280;69556;45.004;7.532;2023-04-24T03:48:28;97581.09;;;9.93;87.10
80242;BME280;69556;45.004;7.532;2023-04-24T03:50:53;97587.19;;;9.94;87.22
80242;BME280;69556;45.004;7.532;2023-04-24T03:53:18;97589.84;;;9.94;86.93
80242;BME280;69556;45.004;7.532;2023-04-24T03:55:45;97585.28;;;9.97;86.89
80242;BME280;69556;45.004;7.532;2023-04-24T03:58:10;97583.63;;;9.95;87.38
80242;BME280;69556;45.004;7.532;2023-04-24T04:00:36;97583.16;;;9.87;87.35
80242;BME280;69556;45.004;7.532;2023-04-24T04:03:03;97588.50;;;9.85;87.47
80242;BME280;69556;45.004;7.532;2023-04-24T04:05:28;97597.03;;;9.90;87.62
80242;BME280;69556;45.004;7.532;2023-04-24T04:07:54;97591.69;;;9.92;87.29
80242;BME280;69556;45.004;7.532;2023-04-24T04:10:20;97587.19;;;9.94;87.43
80242;BME280;69556;45.004;7.532;2023-04-24T04:12:45;97574.16;;;9.91;86.93
80242;BME280;69556;45.004;7.532;2023-04-24T04:15:10;97572.78;;;9.84;86.94
80242;BME280;69556;45.004;7.532;2023-04-24T04:17:36;97575.47;;;9.82;87.15
80242;BME280;69556;45.004;7.532;2023-04-24T04:20:03;97579.22;;;9.77;86.78
80242;BME280;69556;45.004;7.532;2023-04-24T04:22:32;97584.59;;;9.75;86.99
80242;BME280;69556;45.004;7.532;2023-04-24T04:24:57;97577.69;;;9.72;87.27
80242;BME280;69556;45.004;7.532;2023-04-24T04:27:22;97584.06;;;9.67;88.00
80242;BME280;69556;45.004;7.532;2023-04-24T04:29:48;97576.59;;;9.58;87.60
80242;BME280;69556;45.004;7.532;2023-04-24T04:32:13;97598.25;;;9.46;87.71
80242;BME280;69556;45.004;7.532;2023-04-24T04:34:39;97593.44;;;9.35;88.01
80242;BME280;69556;45.004;7.532;2023-04-24T04:37:04;97598.72;;;9.35;88.37
80242;BME280;69556;45.004;7.532;2023-04-24T04:39:30;97590.81;;;9.35;88.23
80242;BME280;69556;45.004;7.532;2023-04-24T04:41:56;97592.75;;;9.32;88.14
80242;BME280;69556;45.004;7.532;2023-04-24T04:44:22;97600.69;;;9.30;88.07
80242;BME280;69556;45.004;7.532;2023-04-24T04:46:48;97605.41;;;9.23;88.03
80242;BME280;69556;45.004;7.532;2023-04-24T04:49:14;97606.09;;;9.27;87.81
80242;BME280;69556;45.004;7.532;2023-04-24T04:51:41;97622.38;;;9.16;87.70
80242;BME280;69556;45.004;7.532;2023-04-24T04:54:07;97613.03;;;9.09;87.78
80242;BME280;69556;45.004;7.532;2023-04-24T04:56:32;97605.97;;;9.10;87.90
80242;BME280;69556;45.004;7.532;2023-04-24T04:58:58;97599.78;;;9.11;87.92
80242;BME280;69556;45.004;7.532;2023-04-24T05:01:24;97614.66;;;9.12;88.32
80242;BME280;69556;45.004;7.532;2023-04-24T05:03:50;97618.38;;;9.08;88.06
80242;BME280;69556;45.004;7.532;2023-04-24T05:06:16;97614.81;;;9.09;87.80
80242;BME280;69556;45.004;7.532;2023-04-24T05:08:42;97620.78;;;9.12;87.67
80242;BME280;69556;45.004;7.532;2023-04-24T05:11:07;97624.28;;;9.13;88.15
80242;BME280;69556;45.004;7.532;2023-04-24T05:13:32;97618.03;;;9.15;88.55
80242;BME280;69556;45.004;7.532;2023-04-24T05:15:58;97626.47;;;9.23;88.24
80242;BME280;69556;45.004;7.532;2023-04-24T05:18:24;97627.94;;;9.29;88.24
80242;BME280;69556;45.004;7.532;2023-04-24T05:20:49;97631.03;;;9.39;88.60
80242;BME280;69556;45.004;7.532;2023-04-24T05:23:14;97633.19;;;9.49;88.58
80242;BME280;69556;45.004;7.532;2023-04-24T05:25:40;97637.66;;;9.47;88.14
80242;BME280;69556;45.004;7.532;2023-04-24T05:28:06;97640.59;;;9.41;87.85
80242;BME280;69556;45.004;7.532;2023-04-24T05:30:32;97646.78;;;9.40;87.72
80242;BME280;69556;45.004;7.532;2023-04-24T05:32:57;97650.00;;;9.47;87.48
80242;BME280;69556;45.004;7.532;2023-04-24T05:35:22;97646.31;;;9.51;87.52
80242;BME280;69556;45.004;7.532;2023-04-24T05:37:48;97641.94;;;9.50;87.52
80242;BME280;69556;45.004;7.532;2023-04-24T05:40:13;97657.19;;;9.62;87.39
80242;BME280;69556;45.004;7.532;2023-04-24T05:42:39;97658.56;;;9.70;87.29
80242;BME280;69556;45.004;7.532;2023-04-24T05:45:05;97652.25;;;9.75;87.12
80242;BME280;69556;45.004;7.532;2023-04-24T05:47:30;97651.03;;;9.82;87.16
80242;BME280;69556;45.004;7.532;2023-04-24T05:49:56;97657.75;;;9.89;86.86
80242;BME280;69556;45.004;7.532;2023-04-24T05:52:21;97647.81;;;9.94;86.70
80242;BME280;69556;45.004;7.532;2023-04-24T05:54:47;97652.91;;;9.98;86.94
80242;BME280;69556;45.004;7.532;2023-04-24T05:57:12;97654.31;;;10.05;87.32
80242;BME280;69556;45.004;7.532;2023-04-24T05:59:38;97657.53;;;10.12;87.03
80242;BME280;69556;45.004;7.532;2023-04-24T06:02:04;97660.75;;;10.19;86.82
80242;BME280;69556;45.004;7.532;2023-04-24T06:04:29;97663.97;;;10.25;86.40
80242;BME280;69556;45.004;7.532;2023-04-24T06:06:55;97662.75;;;10.32;86.46
80242;BME280;69556;45.004;7.532;2023-04-24T06:09:23;97660.63;;;10.40;86.32
80242;BME280;69556;45.004;7.532;2023-04-24T06:11:49;97658.38;;;10.50;86.77
80242;BME280;69556;45.004;7.532;2023-04-24T06:14:17;97668.41;;;10.60;86.58
80242;BME280;69556;45.004;7.532;2023-04-24T06:16:43;97659.28;;;10.68;86.42
80242;BME280;69556;45.004;7.532;2023-04-24T06:19:08;97647.19;;;10.81;85.40
80242;BME280;69556;45.004;7.532;2023-04-24T06:21:33;97649.53;;;10.87;85.55
80242;BME280;69556;45.004;7.532;2023-04-24T06:23:59;97653.56;;;10.94;85.30
80242;BME280;69556;45.004;7.532;2023-04-24T06:26:24;97640.03;;;11.00;85.32
80242;BME280;69556;45.004;7.532;2023-04-24T06:28:51;97634.38;;;11.08;85.08
80242;BME280;69556;45.004;7.532;2023-04-24T06:31:19;97642.06;;;11.12;84.60
80242;BME280;69556;45.004;7.532;2023-04-24T06:33:44;97629.31;;;11.20;84.47
80242;BME280;69556;45.004;7.532;2023-04-24T06:36:10;97644.78;;;11.28;83.49
80242;BME280;69556;45.004;7.532;2023-04-24T06:38:35;97647.19;;;11.32;83.77
80242;BME280;69556;45.004;7.532;2023-04-24T06:41:01;97645.16;;;11.37;83.91
80242;BME280;69556;45.004;7.532;2023-04-24T06:43:26;97648.41;;;11.42;84.28
80242;BME280;69556;45.004;7.532;2023-04-24T06:45:51;97652.59;;;11.46;83.48
80242;BME280;69556;45.004;7.532;2023-04-24T06:48:17;97652.19;;;11.54;82.99
80242;BME280;69556;45.004;7.532;2023-04-24T06:50:42;97654.59;;;11.59;82.73
80242;BME280;69556;45.004;7.532;2023-04-24T06:53:08;97650.84;;;11.63;82.77
80242;BME280;69556;45.004;7.532;2023-04-24T06:55:35;97648.81;;;11.68;82.55
80242;BME280;69556;45.004;7.532;2023-04-24T06:58:01;97648.53;;;11.74;82.17
80242;BME280;69556;45.004;7.532;2023-04-24T07:00:26;97639.50;;;11.78;82.36
80242;BME280;69556;45.004;7.532;2023-04-24T07:02:51;97645.38;;;11.83;81.53
80242;BME280;69556;45.004;7.532;2023-04-24T07:05:17;97645.31;;;11.84;81.42
80242;BME280;69556;45.004;7.532;2023-04-24T07:07:46;97645.81;;;11.91;81.28
80242;BME280;69556;45.004;7.532;2023-04-24T07:10:11;97652.50;;;11.98;81.62
80242;BME280;69556;45.004;7.532;2023-04-24T07:12:38;97641.56;;;12.04;80.80
80242;BME280;69556;45.004;7.532;2023-04-24T07:15:04;97646.78;;;12.06;80.39
80242;BME280;69556;45.004;7.532;2023-04-24T07:17:31;97642.94;;;12.11;80.75
80242;BME280;69556;45.004;7.532;2023-04-24T07:19:56;97633.13;;;12.13;80.58
80242;BME280;69556;45.004;7.532;2023-04-24T07:22:21;97643.22;;;12.22;81.38
80242;BME280;69556;45.004;7.532;2023-04-24T07:24:47;97633.31;;;12.26;81.28
80242;BME280;69556;45.004;7.532;2023-04-24T07:27:13;97655.50;;;12.39;81.44
80242;BME280;69556;45.004;7.532;2023-04-24T07:29:40;97644.41;;;12.48;81.73
80242;BME280;69556;45.004;7.532;2023-04-24T07:32:05;97649.50;;;12.51;81.95
80242;BME280;69556;45.004;7.532;2023-04-24T07:34:31;97652.59;;;12.59;82.29
80242;BME280;69556;45.004;7.532;2023-04-24T07:36:56;97655.00;;;12.64;82.25
80242;BME280;69556;45.004;7.532;2023-04-24T07:39:22;97656.13;;;12.74;81.94
80242;BME280;69556;45.004;7.532;2023-04-24T07:41:48;97658.72;;;12.75;81.03
80242;BME280;69556;45.004;7.532;2023-04-24T07:44:13;97658.78;;;12.90;81.46
80242;BME280;69556;45.004;7.532;2023-04-24T07:46:38;97654.84;;;12.97;80.81
80242;BME280;69556;45.004;7.532;2023-04-24T07:49:05;97650.53;;;13.10;80.94
80242;BME280;69556;45.004;7.532;2023-04-24T07:51:30;97653.41;;;13.21;80.94
80242;BME280;69556;45.004;7.532;2023-04-24T07:53:56;97658.28;;;13.29;79.95
80242;BME280;69556;45.004;7.532;2023-04-24T07:56:21;97638.09;;;13.26;79.87
80242;BME280;69556;45.004;7.532;2023-04-24T07:58:47;97644.16;;;13.28;79.41
80242;BME280;69556;45.004;7.532;2023-04-24T08:01:12;97653.31;;;13.22;79.66
80242;BME280;69556;45.004;7.532;2023-04-24T08:03:37;97656.53;;;13.13;79.72
80242;BME280;69556;45.004;7.532;2023-04-24T08:06:03;97646.09;;;13.10;80.32
80242;BME280;69556;45.004;7.532;2023-04-24T08:08:28;97652.31;;;13.09;80.61
80242;BME280;69556;45.004;7.532;2023-04-24T08:10:54;97656.53;;;13.13;80.55
80242;BME280;69556;45.004;7.532;2023-04-24T08:13:20;97652.75;;;13.17;81.04
80242;BME280;69556;45.004;7.532;2023-04-24T08:15:45;97640.28;;;13.19;81.85
80242;BME280;69556;45.004;7.532;2023-04-24T08:18:11;97633.72;;;13.25;81.44
80242;BME280;69556;45.004;7.532;2023-04-24T08:20:37;97639.53;;;13.32;81.49
80242;BME280;69556;45.004;7.532;2023-04-24T08:23:03;97653.00;;;13.43;81.02
80242;BME280;69556;45.004;7.532;2023-04-24T08:25:28;97655.06;;;13.38;79.90
80242;BME280;69556;45.004;7.532;2023-04-24T08:27:54;97655.06;;;13.38;80.10
80242;BME280;69556;45.004;7.532;2023-04-24T08:30:19;97655.06;;;13.38;80.57
80242;BME280;69556;45.004;7.532;2023-04-24T08:32:45;97636.25;;;13.42;80.17
80242;BME280;69556;45.004;7.532;2023-04-24T08:35:11;97646.09;;;13.54;80.17
80242;BME280;69556;45.004;7.532;2023-04-24T08:37:36;97654.13;;;13.67;80.50
80242;BME280;69556;45.004;7.532;2023-04-24T08:40:06;97640.88;;;13.67;80.51
80242;BME280;69556;45.004;7.532;2023-04-24T08:42:37;97629.72;;;13.62;79.75
80242;BME280;69556;45.004;7.532;2023-04-24T08:45:03;97644.50;;;13.66;80.48
80242;BME280;69556;45.004;7.532;2023-04-24T08:47:28;97652.25;;;13.69;80.92
80242;BME280;69556;45.004;7.532;2023-04-24T08:49:55;97651.50;;;13.81;80.74
80242;BME280;69556;45.004;7.532;2023-04-24T08:52:21;97649.69;;;13.82;79.55
80242;BME280;69556;45.004;7.532;2023-04-24T08:54:47;97640.72;;;13.84;79.73
80242;BME280;69556;45.004;7.532;2023-04-24T08:57:14;97648.47;;;13.87;79.95
80242;BME280;69556;45.004;7.532;2023-04-24T08:59:40;97651.13;;;13.87;79.48
80242;BME280;69556;45.004;7.532;2023-04-24T09:02:06;97650.00;;;13.91;80.04
80242;BME280;69556;45.004;7.532;2023-04-24T09:04:35;97642.50;;;14.12;80.78
80242;BME280;69556;45.004;7.532;2023-04-24T09:07:01;97658.59;;;14.23;80.20
80242;BME280;69556;45.004;7.532;2023-04-24T09:09:30;97659.56;;;14.22;78.57
80242;BME280;69556;45.004;7.532;2023-04-24T09:11:56;97660.94;;;14.28;78.56
80242;BME280;69556;45.004;7.532;2023-04-24T09:14:22;97661.91;;;14.27;77.57
80242;BME280;69556;45.004;7.532;2023-04-24T09:16:49;97649.50;;;14.27;76.87
80242;BME280;69556;45.004;7.532;2023-04-24T09:19:15;97641.84;;;14.37;78.65
80242;BME280;69556;45.004;7.532;2023-04-24T09:21:40;97642.38;;;14.42;78.18
80242;BME280;69556;45.004;7.532;2023-04-24T09:24:13;97661.94;;;14.41;76.88
80242;BME280;69556;45.004;7.532;2023-04-24T09:26:39;97666.72;;;14.48;76.80
80242;BME280;69556;45.004;7.532;2023-04-24T09:29:05;97662.75;;;14.56;76.97
80242;BME280;69556;45.004;7.532;2023-04-24T09:31:31;97661.91;;;14.55;76.22
80242;BME280;69556;45.004;7.532;2023-04-24T09:33:59;97668.88;;;14.56;75.52
80242;BME280;69556;45.004;7.532;2023-04-24T09:36:34;97665.09;;;14.60;76.35
80242;BME280;69556;45.004;7.532;2023-04-24T09:39:03;97650.16;;;14.72;76.13
80242;BME280;69556;45.004;7.532;2023-04-24T09:41:29;97648.53;;;14.83;75.97
80242;BME280;69556;45.004;7.532;2023-04-24T09:43:55;97647.47;;;14.98;74.71
80242;BME280;69556;45.004;7.532;2023-04-24T09:46:28;97644.66;;;15.02;75.10
80242;BME280;69556;45.004;7.532;2023-04-24T09:48:54;97652.19;;;15.08;74.71
80242;BME280;69556;45.004;7.532;2023-04-24T09:51:33;97653.81;;;15.23;74.15
80242;BME280;69556;45.004;7.532;2023-04-24T09:53:59;97641.84;;;15.30;74.67
80242;BME280;69556;45.004;7.532;2023-04-24T09:56:25;97637.56;;;15.40;74.61
80242;BME280;69556;45.004;7.532;2023-04-24T09:58:51;97630.59;;;15.52;74.48
80242;BME280;69556;45.004;7.532;2023-04-24T10:01:29;97641.16;;;15.53;74.69
80242;BME280;69556;45.004;7.532;2023-04-24T10:03:55;97649.28;;;15.50;74.09
80242;BME280;69556;45.004;7.532;2023-04-24T10:06:20;97650.94;;;15.53;74.35
80242;BME280;69556;45.004;7.532;2023-04-24T10:08:47;97640.28;;;15.53;74.38
80242;BME280;69556;45.004;7.532;2023-04-24T10:11:13;97640.94;;;15.56;74.67
80242;BME280;69556;45.004;7.532;2023-04-24T10:13:39;97636.34;;;15.83;74.82
80242;BME280;69556;45.004;7.532;2023-04-24T10:16:06;97641.78;;;15.95;73.70
80242;BME280;69556;45.004;7.532;2023-04-24T10:18:32;97650.06;;;16.03;73.39
80242;BME280;69556;45.004;7.532;2023-04-24T10:20:59;97633.66;;;15.96;71.08
80242;BME280;69556;45.004;7.532;2023-04-24T10:23:25;97636.34;;;16.09;71.95
80242;BME280;69556;45.004;7.532;2023-04-24T10:25:50;97631.53;;;16.14;70.05
80242;BME280;69556;45.004;7.532;2023-04-24T10:28:18;97628.53;;;16.18;68.84
80242;BME280;69556;45.004;7.532;2023-04-24T10:30:45;97646.91;;;16.34;69.50
80242;BME280;69556;45.004;7.532;2023-04-24T10:33:10;97635.63;;;16.30;67.96
80242;BME280;69556;45.004;7.532;2023-04-24T10:35:40;97630.63;;;16.26;69.46
80242;BME280;69556;45.004;7.532;2023-04-24T10:38:09;97622.13;;;16.21;69.77
80242;BME280;69556;45.004;7.532;2023-04-24T10:40:35;97618.88;;;16.41;69.49
80242;BME280;69556;45.004;7.532;2023-04-24T10:43:08;97616.78;;;16.57;69.50
80242;BME280;69556;45.004;7.532;2023-04-24T10:45:36;97624.47;;;16.86;69.04
80242;BME280;69556;45.004;7.532;2023-04-24T10:48:08;97638.38;;;17.02;68.43
80242;BME280;69556;45.004;7.532;2023-04-24T10:50:56;97634.94;;;16.89;67.96
80242;BME280;69556;45.004;7.532;2023-04-24T10:53:23;97631.28;;;16.90;66.50
80242;BME280;69556;45.004;7.532;2023-04-24T10:56:04;97611.06;;;16.87;68.63
80242;BME280;69556;45.004;7.532;2023-04-24T10:58:43;97599.63;;;17.09;68.24
80242;BME280;69556;45.004;7.532;2023-04-24T11:01:30;97590.00;;;17.41;67.49
80242;BME280;69556;45.004;7.532;2023-04-24T11:03:58;97594.13;;;17.45;66.62
80242;BME280;69556;45.004;7.532;2023-04-24T11:06:32;97597.03;;;17.77;63.40
80242;BME280;69556;45.004;7.532;2023-04-24T11:09:09;97604.88;;;17.79;62.61
80242;BME280;69556;45.004;7.532;2023-04-24T11:11:37;97608.91;;;17.84;61.63
80242;BME280;69556;45.004;7.532;2023-04-24T11:14:06;97598.31;;;17.83;61.50
80242;BME280;69556;45.004;7.532;2023-04-24T11:21:46;97568.28;;;18.46;61.13
80242;BME280;69556;45.004;7.532;2023-04-24T11:26:48;97570.50;;;18.84;59.92
80242;BME280;69556;45.004;7.532;2023-04-24T11:29:13;97569.50;;;18.85;60.39
80242;BME280;69556;45.004;7.532;2023-04-24T11:31:40;97563.53;;;18.92;60.31
80242;BME280;69556;45.004;7.532;2023-04-24T11:34:12;97549.28;;;19.03;58.96
80242;BME280;69556;45.004;7.532;2023-04-24T11:36:39;97547.16;;;19.27;58.61
80242;BME280;69556;45.004;7.532;2023-04-24T11:39:05;97545.25;;;19.50;55.06
80242;BME280;69556;45.004;7.532;2023-04-24T11:41:31;97547.81;;;19.61;56.09
